Sugar Valley, Texas
Current Conditions -  °F | °C
As of 5:53 AM on Friday 24 Oct 2014 (Local Time) from KLBX Reporting Station
Clear Clear  
Wind Chill: 55°   Ceiling: Unl
Heat Index: 55°   Visibility: 8mi
Dew Point: 55°   Wind: 5mph
Humidity: 100%   Direction: 20°NNE
Pressure: 30.11"   Gusts: NA
Location:  29.0235°N, 95.7113°W
Report Text: KLBX 241053Z AUTO 02004KT 8SM CLR 13/13 A3011 RMK AO2 SLP195 T01280128
Loading
Personal Weather Stations






























Interactive Weather Map
Tropical Storm Tracking
New forecast layout! Learn more

10-Day Weather Forecast

Advertisements
Track Severe Weather on mobile